sensor_id;sensor_type;location;lat;lon;timestamp;temperature;humidity
11908;DHT22;6014;47.690;9.130;2023-05-21T00:00:13;13.70;99.90
11908;DHT22;6014;47.690;9.130;2023-05-21T00:02:56;13.70;99.90
11908;DHT22;6014;47.690;9.130;2023-05-21T00:05:32;13.70;99.90
11908;DHT22;6014;47.690;9.130;2023-05-21T00:08:05;13.60;99.90
11908;DHT22;6014;47.690;9.130;2023-05-21T00:10:36;13.60;99.90
11908;DHT22;6014;47.690;9.130;2023-05-21T00:13:05;13.50;99.90
11908;DHT22;6014;47.690;9.130;2023-05-21T00:15:42;13.40;99.90
11908;DHT22;6014;47.690;9.130;2023-05-21T00:18:19;13.40;99.90
11908;DHT22;6014;47.690;9.130;2023-05-21T00:20:49;13.30;99.90
11908;DHT22;6014;47.690;9.130;2023-05-21T00:23:19;13.30;99.90
11908;DHT22;6014;47.690;9.130;2023-05-21T00:25:49;13.30;99.90
11908;DHT22;6014;47.690;9.130;2023-05-21T00:28:17;13.30;99.90
11908;DHT22;6014;47.690;9.130;2023-05-21T00:30:47;13.20;99.90
11908;DHT22;6014;47.690;9.130;2023-05-21T00:33:15;13.20;99.90
11908;DHT22;6014;47.690;9.130;2023-05-21T00:35:45;13.20;99.90
11908;DHT22;6014;47.690;9.130;2023-05-21T00:38:22;13.20;99.90
11908;DHT22;6014;47.690;9.130;2023-05-21T00:40:55;13.30;99.90
11908;DHT22;6014;47.690;9.130;2023-05-21T00:43:27;13.30;99.90
11908;DHT22;6014;47.690;9.130;2023-05-21T00:45:58;13.20;99.90
11908;DHT22;6014;47.690;9.130;2023-05-21T00:48:27;13.20;99.90
11908;DHT22;6014;47.690;9.130;2023-05-21T00:50:57;13.20;99.90
11908;DHT22;6014;47.690;9.130;2023-05-21T00:53:30;13.10;99.90
11908;DHT22;6014;47.690;9.130;2023-05-21T00:56:02;13.00;99.90
11908;DHT22;6014;47.690;9.130;2023-05-21T00:58:31;13.00;99.90
11908;DHT22;6014;47.690;9.130;2023-05-21T01:01:04;13.00;99.90
11908;DHT22;6014;47.690;9.130;2023-05-21T01:03:38;12.90;99.90
11908;DHT22;6014;47.690;9.130;2023-05-21T01:06:11;12.80;99.90
11908;DHT22;6014;47.690;9.130;2023-05-21T01:08:43;12.80;99.90
11908;DHT22;6014;47.690;9.130;2023-05-21T01:11:30;12.70;99.90
11908;DHT22;6014;47.690;9.130;2023-05-21T01:14:14;12.70;99.90
11908;DHT22;6014;47.690;9.130;2023-05-21T01:16:51;12.80;99.90
11908;DHT22;6014;47.690;9.130;2023-05-21T01:19:21;12.70;99.90
11908;DHT22;6014;47.690;9.130;2023-05-21T01:21:52;12.70;99.90
11908;DHT22;6014;47.690;9.130;2023-05-21T01:24:25;12.60;99.90
11908;DHT22;6014;47.690;9.130;2023-05-21T01:26:54;12.60;99.90
11908;DHT22;6014;47.690;9.130;2023-05-21T01:29:25;12.50;99.90
11908;DHT22;6014;47.690;9.130;2023-05-21T01:32:06;12.50;99.90
11908;DHT22;6014;47.690;9.130;2023-05-21T01:34:55;12.50;99.90
11908;DHT22;6014;47.690;9.130;2023-05-21T01:37:29;12.50;99.90
11908;DHT22;6014;47.690;9.130;2023-05-21T01:40:07;12.50;99.90
11908;DHT22;6014;47.690;9.130;2023-05-21T01:42:53;12.50;99.90
11908;DHT22;6014;47.690;9.130;2023-05-21T01:45:23;12.50;99.90
11908;DHT22;6014;47.690;9.130;2023-05-21T01:47:53;12.50;99.90
11908;DHT22;6014;47.690;9.130;2023-05-21T01:50:25;12.50;99.90
11908;DHT22;6014;47.690;9.130;2023-05-21T01:52:55;12.50;99.90
11908;DHT22;6014;47.690;9.130;2023-05-21T01:55:31;12.40;99.90
11908;DHT22;6014;47.690;9.130;2023-05-21T01:58:06;12.40;99.90
11908;DHT22;6014;47.690;9.130;2023-05-21T02:00:38;12.40;99.90
11908;DHT22;6014;47.690;9.130;2023-05-21T02:03:12;12.50;99.90
11908;DHT22;6014;47.690;9.130;2023-05-21T02:05:42;12.50;99.90
11908;DHT22;6014;47.690;9.130;2023-05-21T02:08:11;12.50;99.90
11908;DHT22;6014;47.690;9.130;2023-05-21T02:10:55;12.30;99.90
11908;DHT22;6014;47.690;9.130;2023-05-21T02:13:24;12.40;99.90
11908;DHT22;6014;47.690;9.130;2023-05-21T02:15:59;12.40;99.90
11908;DHT22;6014;47.690;9.130;2023-05-21T02:18:40;12.40;99.90
11908;DHT22;6014;47.690;9.130;2023-05-21T02:21:13;12.40;99.90
11908;DHT22;6014;47.690;9.130;2023-05-21T02:23:41;12.40;99.90
11908;DHT22;6014;47.690;9.130;2023-05-21T02:26:11;12.30;99.90
11908;DHT22;6014;47.690;9.130;2023-05-21T02:28:39;12.40;99.90
11908;DHT22;6014;47.690;9.130;2023-05-21T02:31:10;12.40;99.90
11908;DHT22;6014;47.690;9.130;2023-05-21T02:33:43;12.50;99.90
11908;DHT22;6014;47.690;9.130;2023-05-21T02:36:13;12.50;99.90
11908;DHT22;6014;47.690;9.130;2023-05-21T02:38:44;12.50;99.90
11908;DHT22;6014;47.690;9.130;2023-05-21T02:41:29;12.30;99.90
11908;DHT22;6014;47.690;9.130;2023-05-21T02:44:24;12.30;99.90
11908;DHT22;6014;47.690;9.130;2023-05-21T02:46:53;12.20;99.90
11908;DHT22;6014;47.690;9.130;2023-05-21T02:49:21;12.20;99.90
11908;DHT22;6014;47.690;9.130;2023-05-21T02:51:49;12.20;99.90
11908;DHT22;6014;47.690;9.130;2023-05-21T02:54:34;12.10;99.90
11908;DHT22;6014;47.690;9.130;2023-05-21T02:57:04;12.20;99.90
11908;DHT22;6014;47.690;9.130;2023-05-21T02:59:38;12.20;99.90
11908;DHT22;6014;47.690;9.130;2023-05-21T03:02:06;12.10;99.90
11908;DHT22;6014;47.690;9.130;2023-05-21T03:04:38;12.00;99.90
11908;DHT22;6014;47.690;9.130;2023-05-21T03:07:12;12.00;99.90
11908;DHT22;6014;47.690;9.130;2023-05-21T03:09:43;12.00;99.90
11908;DHT22;6014;47.690;9.130;2023-05-21T03:12:12;12.10;99.90
11908;DHT22;6014;47.690;9.130;2023-05-21T03:14:40;12.00;99.90
11908;DHT22;6014;47.690;9.130;2023-05-21T03:17:09;12.00;99.90
11908;DHT22;6014;47.690;9.130;2023-05-21T03:19:50;11.90;99.90
11908;DHT22;6014;47.690;9.130;2023-05-21T03:22:19;11.90;99.90
11908;DHT22;6014;47.690;9.130;2023-05-21T03:24:47;11.90;99.90
11908;DHT22;6014;47.690;9.130;2023-05-21T03:27:16;11.90;99.90
11908;DHT22;6014;47.690;9.130;2023-05-21T03:29:50;12.00;99.90
11908;DHT22;6014;47.690;9.130;2023-05-21T03:32:20;12.10;99.90
11908;DHT22;6014;47.690;9.130;2023-05-21T03:34:53;12.00;99.90
11908;DHT22;6014;47.690;9.130;2023-05-21T03:37:24;12.00;99.90
11908;DHT22;6014;47.690;9.130;2023-05-21T03:39:52;12.00;99.90
11908;DHT22;6014;47.690;9.130;2023-05-21T03:42:22;12.00;99.90
11908;DHT22;6014;47.690;9.130;2023-05-21T03:45:11;11.90;99.90
11908;DHT22;6014;47.690;9.130;2023-05-21T03:47:44;12.00;99.90
11908;DHT22;6014;47.690;9.130;2023-05-21T03:50:16;12.10;99.90
11908;DHT22;6014;47.690;9.130;2023-05-21T03:52:58;12.10;99.90
11908;DHT22;6014;47.690;9.130;2023-05-21T03:55:34;12.10;99.90
11908;DHT22;6014;47.690;9.130;2023-05-21T03:58:04;12.00;99.90
11908;DHT22;6014;47.690;9.130;2023-05-21T04:00:33;12.10;99.90
11908;DHT22;6014;47.690;9.130;2023-05-21T04:03:09;12.10;99.90
11908;DHT22;6014;47.690;9.130;2023-05-21T04:05:47;12.20;99.90
11908;DHT22;6014;47.690;9.130;2023-05-21T04:08:23;12.10;99.90
11908;DHT22;6014;47.690;9.130;2023-05-21T04:10:57;12.10;99.90
11908;DHT22;6014;47.690;9.130;2023-05-21T04:13:32;12.10;99.90
11908;DHT22;6014;47.690;9.130;2023-05-21T04:16:00;12.20;99.90
11908;DHT22;6014;47.690;9.130;2023-05-21T04:18:29;12.20;99.90
11908;DHT22;6014;47.690;9.130;2023-05-21T04:20:57;12.20;99.90
11908;DHT22;6014;47.690;9.130;2023-05-21T04:23:33;12.30;99.90
11908;DHT22;6014;47.690;9.130;2023-05-21T04:26:04;12.30;99.90
11908;DHT22;6014;47.690;9.130;2023-05-21T04:28:35;12.30;99.90
11908;DHT22;6014;47.690;9.130;2023-05-21T04:31:07;12.30;99.90
11908;DHT22;6014;47.690;9.130;2023-05-21T04:33:38;12.30;99.90
11908;DHT22;6014;47.690;9.130;2023-05-21T04:36:08;12.50;99.90
11908;DHT22;6014;47.690;9.130;2023-05-21T04:38:39;12.50;99.90
11908;DHT22;6014;47.690;9.130;2023-05-21T04:41:07;12.50;99.90
11908;DHT22;6014;47.690;9.130;2023-05-21T04:43:38;12.50;99.90
11908;DHT22;6014;47.690;9.130;2023-05-21T04:46:12;12.50;99.90
11908;DHT22;6014;47.690;9.130;2023-05-21T04:48:43;12.60;99.90
11908;DHT22;6014;47.690;9.130;2023-05-21T04:51:21;12.60;99.90
11908;DHT22;6014;47.690;9.130;2023-05-21T04:53:50;12.70;99.90
11908;DHT22;6014;47.690;9.130;2023-05-21T04:56:20;12.80;99.90
11908;DHT22;6014;47.690;9.130;2023-05-21T04:59:07;12.90;99.90
11908;DHT22;6014;47.690;9.130;2023-05-21T05:01:37;12.90;99.90
11908;DHT22;6014;47.690;9.130;2023-05-21T05:04:07;13.00;99.90
11908;DHT22;6014;47.690;9.130;2023-05-21T05:06:37;13.10;99.90
11908;DHT22;6014;47.690;9.130;2023-05-21T05:09:17;13.10;99.90
11908;DHT22;6014;47.690;9.130;2023-05-21T05:11:57;13.30;99.90
11908;DHT22;6014;47.690;9.130;2023-05-21T05:14:27;13.30;99.90
11908;DHT22;6014;47.690;9.130;2023-05-21T05:17:04;13.40;99.90
11908;DHT22;6014;47.690;9.130;2023-05-21T05:19:43;13.30;99.90
11908;DHT22;6014;47.690;9.130;2023-05-21T05:22:13;13.40;99.90
11908;DHT22;6014;47.690;9.130;2023-05-21T05:24:42;13.60;99.90
11908;DHT22;6014;47.690;9.130;2023-05-21T05:27:36;13.80;99.90
11908;DHT22;6014;47.690;9.130;2023-05-21T05:30:09;13.90;99.90
11908;DHT22;6014;47.690;9.130;2023-05-21T05:32:40;14.10;99.90
11908;DHT22;6014;47.690;9.130;2023-05-21T05:35:09;14.10;99.90
11908;DHT22;6014;47.690;9.130;2023-05-21T05:37:40;14.20;99.90
11908;DHT22;6014;47.690;9.130;2023-05-21T05:40:17;14.40;99.90
11908;DHT22;6014;47.690;9.130;2023-05-21T05:42:48;14.40;99.90
11908;DHT22;6014;47.690;9.130;2023-05-21T05:45:50;14.50;99.90
11908;DHT22;6014;47.690;9.130;2023-05-21T05:51:33;14.80;99.90
11908;DHT22;6014;47.690;9.130;2023-05-21T05:54:19;15.00;99.90
11908;DHT22;6014;47.690;9.130;2023-05-21T05:56:48;15.00;99.90
11908;DHT22;6014;47.690;9.130;2023-05-21T05:59:16;15.10;99.90
11908;DHT22;6014;47.690;9.130;2023-05-21T06:01:48;15.10;99.90
11908;DHT22;6014;47.690;9.130;2023-05-21T06:04:26;15.10;99.90
11908;DHT22;6014;47.690;9.130;2023-05-21T06:07:04;15.20;99.90
11908;DHT22;6014;47.690;9.130;2023-05-21T06:09:35;15.20;99.90
11908;DHT22;6014;47.690;9.130;2023-05-21T06:12:06;15.30;99.90
11908;DHT22;6014;47.690;9.130;2023-05-21T06:14:42;15.20;99.90
11908;DHT22;6014;47.690;9.130;2023-05-21T06:17:19;15.40;99.90
11908;DHT22;6014;47.690;9.130;2023-05-21T06:20:03;15.40;99.90
11908;DHT22;6014;47.690;9.130;2023-05-21T06:22:36;15.50;99.90
11908;DHT22;6014;47.690;9.130;2023-05-21T06:25:11;15.50;99.90
11908;DHT22;6014;47.690;9.130;2023-05-21T06:27:52;15.60;99.90
11908;DHT22;6014;47.690;9.130;2023-05-21T06:30:21;15.60;99.90
11908;DHT22;6014;47.690;9.130;2023-05-21T06:33:10;15.70;99.90
11908;DHT22;6014;47.690;9.130;2023-05-21T06:35:38;15.70;99.90
11908;DHT22;6014;47.690;9.130;2023-05-21T06:38:14;15.70;99.90
11908;DHT22;6014;47.690;9.130;2023-05-21T06:40:51;15.80;99.90
11908;DHT22;6014;47.690;9.130;2023-05-21T06:43:22;15.80;99.90
11908;DHT22;6014;47.690;9.130;2023-05-21T06:45:51;16.00;99.90
11908;DHT22;6014;47.690;9.130;2023-05-21T06:48:21;16.10;99.90
11908;DHT22;6014;47.690;9.130;2023-05-21T06:50:49;16.20;99.90
11908;DHT22;6014;47.690;9.130;2023-05-21T06:53:20;16.40;99.90
11908;DHT22;6014;47.690;9.130;2023-05-21T06:55:54;16.40;99.90
11908;DHT22;6014;47.690;9.130;2023-05-21T06:58:24;16.30;99.90
11908;DHT22;6014;47.690;9.130;2023-05-21T07:00:59;16.30;99.90
11908;DHT22;6014;47.690;9.130;2023-05-21T07:03:29;16.60;99.90
11908;DHT22;6014;47.690;9.130;2023-05-21T07:05:57;16.50;99.90
11908;DHT22;6014;47.690;9.130;2023-05-21T07:08:26;16.60;99.90
11908;DHT22;6014;47.690;9.130;2023-05-21T07:10:57;16.80;99.90
11908;DHT22;6014;47.690;9.130;2023-05-21T07:13:29;16.80;99.90
11908;DHT22;6014;47.690;9.130;2023-05-21T07:16:01;16.90;99.90
11908;DHT22;6014;47.690;9.130;2023-05-21T07:18:32;17.20;99.90
11908;DHT22;6014;47.690;9.130;2023-05-21T07:21:00;17.20;99.90
11908;DHT22;6014;47.690;9.130;2023-05-21T07:23:34;17.60;99.90
11908;DHT22;6014;47.690;9.130;2023-05-21T07:26:03;17.90;99.90
11908;DHT22;6014;47.690;9.130;2023-05-21T07:28:32;18.40;99.90
11908;DHT22;6014;47.690;9.130;2023-05-21T07:31:00;18.50;99.90
11908;DHT22;6014;47.690;9.130;2023-05-21T07:33:29;19.30;99.90
11908;DHT22;6014;47.690;9.130;2023-05-21T07:36:01;19.50;99.90
11908;DHT22;6014;47.690;9.130;2023-05-21T07:38:29;20.10;99.90
11908;DHT22;6014;47.690;9.130;2023-05-21T07:40:57;20.20;99.90
11908;DHT22;6014;47.690;9.130;2023-05-21T07:43:25;20.20;99.90
11908;DHT22;6014;47.690;9.130;2023-05-21T07:45:54;21.10;99.90
11908;DHT22;6014;47.690;9.130;2023-05-21T07:48:28;21.00;99.90
11908;DHT22;6014;47.690;9.130;2023-05-21T07:51:07;21.30;99.90
11908;DHT22;6014;47.690;9.130;2023-05-21T07:53:37;20.80;99.90
11908;DHT22;6014;47.690;9.130;2023-05-21T07:56:16;20.70;99.90
11908;DHT22;6014;47.690;9.130;2023-05-21T07:58:45;20.70;99.90
11908;DHT22;6014;47.690;9.130;2023-05-21T08:01:24;20.80;99.90
11908;DHT22;6014;47.690;9.130;2023-05-21T08:03:58;21.50;99.90
11908;DHT22;6014;47.690;9.130;2023-05-21T08:06:33;21.80;99.90
11908;DHT22;6014;47.690;9.130;2023-05-21T08:09:03;22.30;99.90
11908;DHT22;6014;47.690;9.130;2023-05-21T08:11:32;22.60;99.10
11908;DHT22;6014;47.690;9.130;2023-05-21T08:14:02;22.50;99.90
11908;DHT22;6014;47.690;9.130;2023-05-21T08:16:32;22.20;99.90
11908;DHT22;6014;47.690;9.130;2023-05-21T08:19:06;22.20;99.90
11908;DHT22;6014;47.690;9.130;2023-05-21T08:21:36;21.80;99.90
11908;DHT22;6014;47.690;9.130;2023-05-21T08:24:05;22.20;99.90
11908;DHT22;6014;47.690;9.130;2023-05-21T08:26:34;21.70;99.90
11908;DHT22;6014;47.690;9.130;2023-05-21T08:29:06;21.80;99.90
11908;DHT22;6014;47.690;9.130;2023-05-21T08:31:36;22.60;99.90
11908;DHT22;6014;47.690;9.130;2023-05-21T08:34:07;22.70;99.90
11908;DHT22;6014;47.690;9.130;2023-05-21T08:36:37;22.70;97.00
11908;DHT22;6014;47.690;9.130;2023-05-21T08:39:16;22.30;99.30
11908;DHT22;6014;47.690;9.130;2023-05-21T08:41:45;22.70;99.10
11908;DHT22;6014;47.690;9.130;2023-05-21T08:44:34;23.30;94.70
11908;DHT22;6014;47.690;9.130;2023-05-21T08:47:06;23.40;93.70
11908;DHT22;6014;47.690;9.130;2023-05-21T08:49:44;23.70;84.60
11908;DHT22;6014;47.690;9.130;2023-05-21T08:52:22;23.30;90.40
11908;DHT22;6014;47.690;9.130;2023-05-21T08:54:58;24.20;86.40
11908;DHT22;6014;47.690;9.130;2023-05-21T08:57:32;24.60;80.30
11908;DHT22;6014;47.690;9.130;2023-05-21T09:00:14;24.60;76.30
11908;DHT22;6014;47.690;9.130;2023-05-21T09:02:47;24.80;78.70
11908;DHT22;6014;47.690;9.130;2023-05-21T09:05:26;25.30;68.50
11908;DHT22;6014;47.690;9.130;2023-05-21T09:08:04;24.80;67.60
11908;DHT22;6014;47.690;9.130;2023-05-21T09:10:36;24.70;69.50
11908;DHT22;6014;47.690;9.130;2023-05-21T09:13:05;24.40;73.80
11908;DHT22;6014;47.690;9.130;2023-05-21T09:15:39;24.50;72.90
11908;DHT22;6014;47.690;9.130;2023-05-21T09:18:10;23.60;69.50
11908;DHT22;6014;47.690;9.130;2023-05-21T09:20:40;24.10;81.80
11908;DHT22;6014;47.690;9.130;2023-05-21T09:23:11;24.80;71.60
11908;DHT22;6014;47.690;9.130;2023-05-21T09:25:45;25.40;62.40
11908;DHT22;6014;47.690;9.130;2023-05-21T09:28:15;25.20;58.30
11908;DHT22;6014;47.690;9.130;2023-05-21T09:30:45;25.30;57.30
11908;DHT22;6014;47.690;9.130;2023-05-21T09:33:24;26.00;53.50
11908;DHT22;6014;47.690;9.130;2023-05-21T09:35:53;25.80;56.10
11908;DHT22;6014;47.690;9.130;2023-05-21T09:38:24;25.60;51.50
11908;DHT22;6014;47.690;9.130;2023-05-21T09:40:54;25.80;51.00
11908;DHT22;6014;47.690;9.130;2023-05-21T09:43:32;25.00;52.20
11908;DHT22;6014;47.690;9.130;2023-05-21T09:46:09;25.60;52.10
11908;DHT22;6014;47.690;9.130;2023-05-21T09:48:42;25.80;53.20
11908;DHT22;6014;47.690;9.130;2023-05-21T09:51:15;25.70;53.90
11908;DHT22;6014;47.690;9.130;2023-05-21T09:53:48;26.10;53.40
11908;DHT22;6014;47.690;9.130;2023-05-21T09:56:21;26.20;54.30
11908;DHT22;6014;47.690;9.130;2023-05-21T09:58:52;26.30;47.80
11908;DHT22;6014;47.690;9.130;2023-05-21T10:01:25;25.50;48.50
11908;DHT22;6014;47.690;9.130;2023-05-21T10:03:56;25.30;53.50
11908;DHT22;6014;47.690;9.130;2023-05-21T10:06:26;25.30;53.80
11908;DHT22;6014;47.690;9.130;2023-05-21T10:08:58;25.40;51.90
11908;DHT22;6014;47.690;9.130;2023-05-21T10:11:39;24.10;56.50
11908;DHT22;6014;47.690;9.130;2023-05-21T10:14:13;24.00;61.00
11908;DHT22;6014;47.690;9.130;2023-05-21T10:16:43;24.10;61.80
11908;DHT22;6014;47.690;9.130;2023-05-21T10:19:12;24.20;55.10
11908;DHT22;6014;47.690;9.130;2023-05-21T10:21:41;24.50;55.90
11908;DHT22;6014;47.690;9.130;2023-05-21T10:24:16;25.10;57.90
11908;DHT22;6014;47.690;9.130;2023-05-21T10:26:52;25.30;58.40
11908;DHT22;6014;47.690;9.130;2023-05-21T10:29:40;25.10;56.60
11908;DHT22;6014;47.690;9.130;2023-05-21T10:32:22;24.50;64.90
11908;DHT22;6014;47.690;9.130;2023-05-21T10:34:52;24.10;77.80
11908;DHT22;6014;47.690;9.130;2023-05-21T10:37:23;24.50;82.10
11908;DHT22;6014;47.690;9.130;2023-05-21T10:39:54;25.20;73.00
11908;DHT22;6014;47.690;9.130;2023-05-21T10:42:41;25.40;67.70
11908;DHT22;6014;47.690;9.130;2023-05-21T10:45:20;25.90;59.20
11908;DHT22;6014;47.690;9.130;2023-05-21T10:48:00;25.70;57.20
11908;DHT22;6014;47.690;9.130;2023-05-21T10:50:44;25.70;52.90
11908;DHT22;6014;47.690;9.130;2023-05-21T10:53:21;24.80;50.20
11908;DHT22;6014;47.690;9.130;2023-05-21T10:56:08;24.80;53.70
11908;DHT22;6014;47.690;9.130;2023-05-21T10:58:53;24.80;47.90
11908;DHT22;6014;47.690;9.130;2023-05-21T11:01:30;25.10;45.70
11908;DHT22;6014;47.690;9.130;2023-05-21T11:04:04;25.30;45.00
11908;DHT22;6014;47.690;9.130;2023-05-21T11:06:33;25.30;43.90
11908;DHT22;6014;47.690;9.130;2023-05-21T11:09:10;25.40;40.40
11908;DHT22;6014;47.690;9.130;2023-05-21T11:11:42;25.60;40.40
11908;DHT22;6014;47.690;9.130;2023-05-21T11:14:28;26.10;40.60
11908;DHT22;6014;47.690;9.130;2023-05-21T11:17:00;26.50;39.90
11908;DHT22;6014;47.690;9.130;2023-05-21T11:19:42;26.50;36.10
11908;DHT22;6014;47.690;9.130;2023-05-21T11:22:26;26.60;36.50
11908;DHT22;6014;47.690;9.130;2023-05-21T11:25:02;26.70;36.00
11908;DHT22;6014;47.690;9.130;2023-05-21T11:27:35;26.60;34.50
11908;DHT22;6014;47.690;9.130;2023-05-21T11:30:05;26.30;34.20
11908;DHT22;6014;47.690;9.130;2023-05-21T11:33:16;27.00;35.60
11908;DHT22;6014;47.690;9.130;2023-05-21T11:35:56;26.90;32.30
11908;DHT22;6014;47.690;9.130;2023-05-21T11:38:27;26.70;32.40
11908;DHT22;6014;47.690;9.130;2023-05-21T11:41:00;26.80;33.70
11908;DHT22;6014;47.690;9.130;2023-05-21T11:43:32;26.60;33.60
11908;DHT22;6014;47.690;9.130;2023-05-21T11:46:04;26.70;33.50
11908;DHT22;6014;47.690;9.130;2023-05-21T11:48:35;26.80;34.60
11908;DHT22;6014;47.690;9.130;2023-05-21T11:51:05;26.40;35.90
11908;DHT22;6014;47.690;9.130;2023-05-21T11:53:34;26.00;38.40
11908;DHT22;6014;47.690;9.130;2023-05-21T11:56:06;25.80;39.10
11908;DHT22;6014;47.690;9.130;2023-05-21T11:58:41;25.80;39.30
11908;DHT22;6014;47.690;9.130;2023-05-21T12:01:20;25.70;40.10
11908;DHT22;6014;47.690;9.130;2023-05-21T12:03:56;26.10;41.10
11908;DHT22;6014;47.690;9.130;2023-05-21T12:06:25;26.50;38.20
11908;DHT22;6014;47.690;9.130;2023-05-21T12:08:53;26.50;37.40
11908;DHT22;6014;47.690;9.130;2023-05-21T12:11:31;26.90;36.10
11908;DHT22;6014;47.690;9.130;2023-05-21T12:14:00;26.80;34.90
11908;DHT22;6014;47.690;9.130;2023-05-21T12:16:30;26.60;34.50
11908;DHT22;6014;47.690;9.130;2023-05-21T12:18:58;26.20;34.10
11908;DHT22;6014;47.690;9.130;2023-05-21T12:21:26;26.40;34.60
11908;DHT22;6014;47.690;9.130;2023-05-21T12:23:55;26.70;32.20
11908;DHT22;6014;47.690;9.130;2023-05-21T12:26:24;26.70;30.50
11908;DHT22;6014;47.690;9.130;2023-05-21T12:28:52;26.90;31.20
11908;DHT22;6014;47.690;9.130;2023-05-21T12:31:29;27.00;31.60
11908;DHT22;6014;47.690;9.130;2023-05-21T12:33:58;27.20;29.30
11908;DHT22;6014;47.690;9.130;2023-05-21T12:36:32;26.90;29.90
11908;DHT22;6014;47.690;9.130;2023-05-21T12:39:00;27.10;30.10
11908;DHT22;6014;47.690;9.130;2023-05-21T12:41:29;27.00;29.50
11908;DHT22;6014;47.690;9.130;2023-05-21T12:43:57;27.20;30.60
11908;DHT22;6014;47.690;9.130;2023-05-21T12:46:27;26.40;30.90
11908;DHT22;6014;47.690;9.130;2023-05-21T12:48:58;26.50;33.30
11908;DHT22;6014;47.690;9.130;2023-05-21T12:51:36;26.10;33.10
11908;DHT22;6014;47.690;9.130;2023-05-21T12:54:11;26.30;33.20
11908;DHT22;6014;47.690;9.130;2023-05-21T12:56:48;26.20;32.80
11908;DHT22;6014;47.690;9.130;2023-05-21T12:59:19;26.30;33.80
11908;DHT22;6014;47.690;9.130;2023-05-21T13:01:51;26.00;33.70
11908;DHT22;6014;47.690;9.130;2023-05-21T13:04:20;25.60;32.00
11908;DHT22;6014;47.690;9.130;2023-05-21T13:06:48;25.60;30.20
11908;DHT22;6014;47.690;9.130;2023-05-21T13:09:33;25.70;31.00
11908;DHT22;6014;47.690;9.130;2023-05-21T13:12:03;25.90;31.00
11908;DHT22;6014;47.690;9.130;2023-05-21T13:14:33;25.90;31.50
11908;DHT22;6014;47.690;9.130;2023-05-21T13:17:09;26.00;29.30
11908;DHT22;6014;47.690;9.130;2023-05-21T13:19:38;26.20;28.90
11908;DHT22;6014;47.690;9.130;2023-05-21T13:22:08;26.50;28.70
11908;DHT22;6014;47.690;9.130;2023-05-21T13:24:39;26.80;28.70
11908;DHT22;6014;47.690;9.130;2023-05-21T13:27:07;27.20;28.50
11908;DHT22;6014;47.690;9.130;2023-05-21T13:29:35;27.70;27.20
11908;DHT22;6014;47.690;9.130;2023-05-21T13:32:04;27.40;25.90
11908;DHT22;6014;47.690;9.130;2023-05-21T13:34:34;26.50;25.20
11908;DHT22;6014;47.690;9.130;2023-05-21T13:37:02;26.40;26.70
11908;DHT22;6014;47.690;9.130;2023-05-21T13:39:30;26.80;26.80
11908;DHT22;6014;47.690;9.130;2023-05-21T13:41:58;26.60;26.80
11908;DHT22;6014;47.690;9.130;2023-05-21T13:44:27;26.30;25.60
11908;DHT22;6014;47.690;9.130;2023-05-21T13:46:55;26.30;26.60
11908;DHT22;6014;47.690;9.130;2023-05-21T13:49:24;26.10;27.20
11908;DHT22;6014;47.690;9.130;2023-05-21T13:51:53;25.40;28.70
11908;DHT22;6014;47.690;9.130;2023-05-21T13:54:24;25.40;29.80
11908;DHT22;6014;47.690;9.130;2023-05-21T13:56:52;25.60;30.10
11908;DHT22;6014;47.690;9.130;2023-05-21T13:59:20;25.90;31.90
11908;DHT22;6014;47.690;9.130;2023-05-21T14:02:07;26.20;30.00
11908;DHT22;6014;47.690;9.130;2023-05-21T14:04:35;26.40;29.70
11908;DHT22;6014;47.690;9.130;2023-05-21T14:07:06;26.50;30.00
11908;DHT22;6014;47.690;9.130;2023-05-21T14:09:37;26.40;31.50
11908;DHT22;6014;47.690;9.130;2023-05-21T14:12:05;26.00;31.00
11908;DHT22;6014;47.690;9.130;2023-05-21T14:14:33;26.00;34.10
11908;DHT22;6014;47.690;9.130;2023-05-21T14:17:18;26.10;33.10
11908;DHT22;6014;47.690;9.130;2023-05-21T14:19:53;26.30;32.30
11908;DHT22;6014;47.690;9.130;2023-05-21T14:22:23;26.90;32.30
11908;DHT22;6014;47.690;9.130;2023-05-21T14:24:51;27.50;31.50
11908;DHT22;6014;47.690;9.130;2023-05-21T14:27:20;27.30;31.20
11908;DHT22;6014;47.690;9.130;2023-05-21T14:29:48;27.40;32.00
11908;DHT22;6014;47.690;9.130;2023-05-21T14:32:16;27.30;32.60
11908;DHT22;6014;47.690;9.130;2023-05-21T14:34:49;27.40;32.00
11908;DHT22;6014;47.690;9.130;2023-05-21T14:37:17;27.30;33.20
11908;DHT22;6014;47.690;9.130;2023-05-21T14:39:50;27.60;32.80
11908;DHT22;6014;47.690;9.130;2023-05-21T14:42:18;27.40;36.50
11908;DHT22;6014;47.690;9.130;2023-05-21T14:44:47;26.30;36.40
11908;DHT22;6014;47.690;9.130;2023-05-21T14:47:15;25.90;40.00
11908;DHT22;6014;47.690;9.130;2023-05-21T14:49:43;25.80;45.90
11908;DHT22;6014;47.690;9.130;2023-05-21T14:52:11;25.60;51.70
11908;DHT22;6014;47.690;9.130;2023-05-21T14:54:39;25.70;53.90
11908;DHT22;6014;47.690;9.130;2023-05-21T14:57:09;25.60;54.30
11908;DHT22;6014;47.690;9.130;2023-05-21T14:59:37;25.70;52.60
11908;DHT22;6014;47.690;9.130;2023-05-21T15:02:06;25.80;51.70
11908;DHT22;6014;47.690;9.130;2023-05-21T15:04:34;26.00;51.60
11908;DHT22;6014;47.690;9.130;2023-05-21T15:07:03;26.20;51.20
11908;DHT22;6014;47.690;9.130;2023-05-21T15:09:31;26.90;47.60
11908;DHT22;6014;47.690;9.130;2023-05-21T15:11:59;27.20;45.10
11908;DHT22;6014;47.690;9.130;2023-05-21T15:14:29;27.90;43.90
11908;DHT22;6014;47.690;9.130;2023-05-21T15:16:57;28.10;40.80
11908;DHT22;6014;47.690;9.130;2023-05-21T15:19:25;28.40;40.10
11908;DHT22;6014;47.690;9.130;2023-05-21T15:21:53;28.50;39.70
11908;DHT22;6014;47.690;9.130;2023-05-21T15:24:21;28.60;38.90
11908;DHT22;6014;47.690;9.130;2023-05-21T15:26:50;28.70;34.20
11908;DHT22;6014;47.690;9.130;2023-05-21T15:29:24;28.00;36.90
11908;DHT22;6014;47.690;9.130;2023-05-21T15:31:54;27.90;36.10
11908;DHT22;6014;47.690;9.130;2023-05-21T15:34:22;28.00;35.60
11908;DHT22;6014;47.690;9.130;2023-05-21T15:37:04;28.40;34.90
11908;DHT22;6014;47.690;9.130;2023-05-21T15:39:32;28.70;34.10
11908;DHT22;6014;47.690;9.130;2023-05-21T15:42:01;28.40;33.30
11908;DHT22;6014;47.690;9.130;2023-05-21T15:44:29;29.00;31.20
11908;DHT22;6014;47.690;9.130;2023-05-21T15:46:58;29.00;30.40
11908;DHT22;6014;47.690;9.130;2023-05-21T15:49:27;29.10;29.10
11908;DHT22;6014;47.690;9.130;2023-05-21T15:51:55;29.10;29.80
11908;DHT22;6014;47.690;9.130;2023-05-21T15:54:23;29.30;28.80
11908;DHT22;6014;47.690;9.130;2023-05-21T15:56:52;28.60;29.60
11908;DHT22;6014;47.690;9.130;2023-05-21T15:59:20;28.60;29.80
11908;DHT22;6014;47.690;9.130;2023-05-21T16:01:48;28.70;28.90
11908;DHT22;6014;47.690;9.130;2023-05-21T16:04:17;29.30;28.00
11908;DHT22;6014;47.690;9.130;2023-05-21T16:06:47;28.90;29.00
11908;DHT22;6014;47.690;9.130;2023-05-21T16:09:16;28.90;29.80
11908;DHT22;6014;47.690;9.130;2023-05-21T16:11:45;29.60;29.90
11908;DHT22;6014;47.690;9.130;2023-05-21T16:14:14;29.90;27.40
11908;DHT22;6014;47.690;9.130;2023-05-21T16:16:42;29.10;27.90
11908;DHT22;6014;47.690;9.130;2023-05-21T16:19:10;28.70;29.10
11908;DHT22;6014;47.690;9.130;2023-05-21T16:21:40;27.90;31.30